Milwaukee, Wisconsin
Traffic Map
Current Weather Conditions
Milwaukee, Wisconsin
Overcast Haze
Overcast

Feels Like: -3°
Wind Chill: -3° Ceiling: 700
Heat Index: Visibility: 2mi
Dew Point: -1° Wind: 9mph
Humidity: 85% Direction: 260° (W)
Pressure: 29.86in Gusts: 0mph
Raw Report DataKMKE 050452Z 26008KT 2SM BR OVC007 01/M01 A2986 RMK AO2 SFC VIS 5 SLP120 T00111011
Traffic Incident Summary
Active as of:
Severity:
Category:
InformationThere was an issue retrieving the traffic information for this location. Please try a different location or try again shortly.
Advertisements
Track Severe Weather on mobile